createdAt,value
2017-10-17T00:00:10.000Z,999.37
2017-10-17T00:01:10.000Z,999.24
2017-10-17T00:02:10.000Z,999.36
2017-10-17T00:03:10.000Z,999.23
2017-10-17T00:04:10.000Z,999.33
2017-10-17T00:05:10.000Z,999.33
2017-10-17T00:06:10.000Z,999.30
2017-10-17T00:07:10.000Z,999.28
2017-10-17T00:08:10.000Z,999.33
2017-10-17T00:09:10.000Z,999.25
2017-10-17T00:10:10.000Z,999.28
2017-10-17T00:11:10.000Z,999.32
2017-10-17T00:12:10.000Z,999.19
2017-10-17T00:13:10.000Z,999.23
2017-10-17T00:14:10.000Z,999.19
2017-10-17T00:15:10.000Z,999.23
2017-10-17T00:16:10.000Z,999.17
2017-10-17T00:17:10.000Z,999.16
2017-10-17T00:18:10.000Z,999.21
2017-10-17T00:19:10.000Z,999.17
2017-10-17T00:20:10.000Z,999.19
2017-10-17T00:21:10.000Z,999.17
2017-10-17T00:22:10.000Z,999.20
2017-10-17T00:23:10.000Z,999.17
2017-10-17T00:24:10.000Z,999.16
2017-10-17T00:25:10.000Z,999.15
2017-10-17T00:26:10.000Z,999.17
2017-10-17T00:27:10.000Z,999.19
2017-10-17T00:28:10.000Z,999.14
2017-10-17T00:29:10.000Z,999.13
2017-10-17T00:30:10.000Z,999.18
2017-10-17T00:31:10.000Z,999.05
2017-10-17T00:32:10.000Z,999.11
2017-10-17T00:33:10.000Z,999.09
2017-10-17T00:34:10.000Z,999.08
2017-10-17T00:35:10.000Z,999.04
2017-10-17T00:36:10.000Z,999.10
2017-10-17T00:37:10.000Z,999.06
2017-10-17T00:38:10.000Z,999.11
2017-10-17T00:39:10.000Z,999.10
2017-10-17T00:40:10.000Z,999.13
2017-10-17T00:41:10.000Z,999.06
2017-10-17T00:42:10.000Z,999.10
2017-10-17T00:43:10.000Z,999.07
2017-10-17T00:44:10.000Z,999.04
2017-10-17T00:45:10.000Z,999.12
2017-10-17T00:46:10.000Z,999.13
2017-10-17T00:47:10.000Z,999.08
2017-10-17T00:48:10.000Z,999.12
2017-10-17T00:49:10.000Z,999.12
2017-10-17T00:50:10.000Z,999.11
2017-10-17T00:51:10.000Z,999.11
2017-10-17T00:52:10.000Z,999.03
2017-10-17T00:53:10.000Z,999.03
2017-10-17T00:54:10.000Z,999.03
2017-10-17T00:55:10.000Z,999.01
2017-10-17T00:56:10.000Z,999.05
2017-10-17T00:57:10.000Z,999.03
2017-10-17T00:58:10.000Z,999.01
2017-10-17T00:59:10.000Z,999.04
2017-10-17T01:00:10.000Z,998.98
2017-10-17T01:02:42.000Z,999.00
2017-10-17T01:03:07.000Z,998.94
2017-10-17T01:03:38.000Z,999.03
2017-10-17T01:05:58.000Z,998.98
2017-10-17T01:06:23.000Z,998.93
2017-10-17T01:06:54.000Z,998.99
2017-10-17T01:08:42.000Z,999.00
2017-10-17T01:09:07.000Z,998.92
2017-10-17T01:09:38.000Z,998.94
2017-10-17T01:12:01.000Z,998.93
2017-10-17T01:12:21.000Z,998.89
2017-10-17T01:12:57.000Z,998.86
2017-10-17T01:15:18.000Z,998.86
2017-10-17T01:15:43.000Z,998.89
2017-10-17T01:16:09.000Z,998.87
2017-10-17T01:17:55.000Z,998.84
2017-10-17T01:18:10.000Z,998.89
2017-10-17T01:18:51.000Z,998.87
2017-10-17T01:19:07.000Z,998.87
2017-10-17T01:20:42.000Z,998.87
2017-10-17T01:21:02.000Z,998.88
2017-10-17T01:21:38.000Z,998.88
2017-10-17T01:24:00.000Z,998.84
2017-10-17T01:24:15.000Z,998.82
2017-10-17T01:24:56.000Z,998.86
2017-10-17T01:27:18.000Z,998.82
2017-10-17T01:27:34.000Z,998.82
2017-10-17T01:27:59.000Z,998.77
2017-10-17T01:28:31.000Z,998.77
2017-10-17T01:30:05.000Z,998.86
2017-10-17T01:30:30.000Z,998.85
2017-10-17T01:31:01.000Z,998.87
2017-10-17T01:32:42.000Z,998.87
2017-10-17T01:32:57.000Z,998.90
2017-10-17T01:33:38.000Z,998.82
2017-10-17T01:38:13.000Z,998.82
2017-10-17T01:38:38.000Z,998.88
2017-10-17T01:39:03.000Z,998.73
2017-10-17T01:39:29.000Z,998.79
2017-10-17T01:39:51.000Z,998.85
2017-10-17T01:42:05.000Z,998.84
2017-10-17T01:42:20.000Z,998.76
2017-10-17T01:42:51.000Z,998.72
2017-10-17T01:44:42.000Z,998.74
2017-10-17T01:44:57.000Z,998.69
2017-10-17T01:45:38.000Z,998.75
2017-10-17T01:48:05.000Z,998.69
2017-10-17T01:48:20.000Z,998.71
2017-10-17T01:49:01.000Z,998.72
2017-10-17T01:51:14.000Z,998.73
2017-10-17T01:51:29.000Z,998.69
2017-10-17T01:51:55.000Z,998.64
2017-10-17T01:54:05.000Z,998.72
2017-10-17T01:54:30.000Z,998.70
2017-10-17T01:55:01.000Z,998.70
2017-10-17T01:55:17.000Z,998.70
2017-10-17T01:56:43.000Z,998.71
2017-10-17T01:56:59.000Z,998.68
2017-10-17T01:57:39.000Z,998.68
2017-10-17T02:00:06.000Z,998.59
2017-10-17T02:00:31.000Z,998.68
2017-10-17T02:00:47.000Z,998.64
2017-10-17T02:01:23.000Z,998.65
2017-10-17T02:02:10.000Z,998.59
2017-10-17T02:03:10.000Z,998.56
2017-10-17T02:04:10.000Z,998.66
2017-10-17T02:05:05.000Z,998.60
2017-10-17T02:06:10.000Z,998.60
2017-10-17T02:07:10.000Z,998.58
2017-10-17T02:08:10.000Z,998.61
2017-10-17T02:09:10.000Z,998.61
2017-10-17T02:10:10.000Z,998.59
2017-10-17T02:11:10.000Z,998.60
2017-10-17T02:12:10.000Z,998.60
2017-10-17T02:13:10.000Z,998.61
2017-10-17T02:14:10.000Z,998.60
2017-10-17T02:15:10.000Z,998.57
2017-10-17T02:16:10.000Z,998.53
2017-10-17T02:17:10.000Z,998.50
2017-10-17T02:18:10.000Z,998.50
2017-10-17T02:19:10.000Z,998.61
2017-10-17T02:20:10.000Z,998.61
2017-10-17T02:21:10.000Z,998.56
2017-10-17T02:22:10.000Z,998.57
2017-10-17T02:23:10.000Z,998.57
2017-10-17T02:24:10.000Z,998.55
2017-10-17T02:25:10.000Z,998.53
2017-10-17T02:26:11.000Z,998.62
2017-10-17T02:27:10.000Z,998.51
2017-10-17T02:28:11.000Z,998.54
2017-10-17T02:29:10.000Z,998.53
2017-10-17T02:30:10.000Z,998.49
2017-10-17T02:31:10.000Z,998.51
2017-10-17T02:32:06.000Z,998.52
2017-10-17T02:33:10.000Z,998.49
2017-10-17T02:34:10.000Z,998.56
2017-10-17T02:35:10.000Z,998.52
2017-10-17T02:36:10.000Z,998.53
2017-10-17T02:37:10.000Z,998.49
2017-10-17T02:38:11.000Z,998.55
2017-10-17T02:39:10.000Z,998.57
2017-10-17T02:40:11.000Z,998.57
2017-10-17T02:41:10.000Z,998.51
2017-10-17T02:42:11.000Z,998.56
2017-10-17T02:43:10.000Z,998.51
2017-10-17T02:44:11.000Z,998.54
2017-10-17T02:45:10.000Z,998.54
2017-10-17T02:46:11.000Z,998.54
2017-10-17T02:47:11.000Z,998.50
2017-10-17T02:48:11.000Z,998.47
2017-10-17T02:49:11.000Z,998.49
2017-10-17T02:50:11.000Z,998.53
2017-10-17T02:51:11.000Z,998.47
2017-10-17T02:52:11.000Z,998.50
2017-10-17T02:53:11.000Z,998.47
2017-10-17T02:54:11.000Z,998.43
2017-10-17T02:55:11.000Z,998.44
2017-10-17T02:56:11.000Z,998.47
2017-10-17T02:57:11.000Z,998.48
2017-10-17T02:58:11.000Z,998.42
2017-10-17T02:59:11.000Z,998.47
2017-10-17T03:00:11.000Z,998.50
2017-10-17T03:01:06.000Z,998.53
2017-10-17T03:02:11.000Z,998.48
2017-10-17T03:03:11.000Z,998.49
2017-10-17T03:04:11.000Z,998.42
2017-10-17T03:05:11.000Z,998.41
2017-10-17T03:06:11.000Z,998.43
2017-10-17T03:07:06.000Z,998.42
2017-10-17T03:08:11.000Z,998.44
2017-10-17T03:09:11.000Z,998.43
2017-10-17T03:10:11.000Z,998.42
2017-10-17T03:11:11.000Z,998.39
2017-10-17T03:12:11.000Z,998.44
2017-10-17T03:13:11.000Z,998.36
2017-10-17T03:14:11.000Z,998.42
2017-10-17T03:15:11.000Z,998.41
2017-10-17T03:16:11.000Z,998.38
2017-10-17T03:17:11.000Z,998.34
2017-10-17T03:18:11.000Z,998.33
2017-10-17T03:19:11.000Z,998.35
2017-10-17T03:20:06.000Z,998.39
2017-10-17T03:21:11.000Z,998.30
2017-10-17T03:22:11.000Z,998.33
2017-10-17T03:23:11.000Z,998.42
2017-10-17T03:24:11.000Z,998.35
2017-10-17T03:25:11.000Z,998.30
2017-10-17T03:26:11.000Z,998.33
2017-10-17T03:27:11.000Z,998.31
2017-10-17T03:28:11.000Z,998.28
2017-10-17T03:29:11.000Z,998.33
2017-10-17T03:30:11.000Z,998.26
2017-10-17T03:31:11.000Z,998.30
2017-10-17T03:32:11.000Z,998.35
2017-10-17T03:33:11.000Z,998.31
2017-10-17T03:34:11.000Z,998.32
2017-10-17T03:35:11.000Z,998.33
2017-10-17T03:36:11.000Z,998.28
2017-10-17T03:37:11.000Z,998.30
2017-10-17T03:38:14.000Z,998.31
2017-10-17T03:38:40.000Z,998.31
2017-10-17T03:40:37.000Z,998.30
2017-10-17T03:41:02.000Z,998.39
2017-10-17T03:41:33.000Z,998.25
2017-10-17T03:42:11.000Z,998.34
2017-10-17T03:43:11.000Z,998.25
2017-10-17T03:44:11.000Z,998.24
2017-10-17T03:45:11.000Z,998.26
2017-10-17T03:46:11.000Z,998.17
2017-10-17T03:47:11.000Z,998.23
2017-10-17T03:48:11.000Z,998.17
2017-10-17T03:49:11.000Z,998.21
2017-10-17T03:50:11.000Z,998.20
2017-10-17T03:51:11.000Z,998.21
2017-10-17T03:52:11.000Z,998.16
2017-10-17T03:53:11.000Z,998.15
2017-10-17T03:54:11.000Z,998.13
2017-10-17T03:55:11.000Z,998.19
2017-10-17T03:56:11.000Z,998.20
2017-10-17T03:57:11.000Z,998.21
2017-10-17T03:58:11.000Z,998.21
2017-10-17T03:59:11.000Z,998.13
2017-10-17T04:00:11.000Z,998.20
2017-10-17T04:01:11.000Z,998.16
2017-10-17T04:02:11.000Z,998.16
2017-10-17T04:03:11.000Z,998.14
2017-10-17T04:04:11.000Z,998.24
2017-10-17T04:05:11.000Z,998.18
2017-10-17T04:06:11.000Z,998.16
2017-10-17T04:07:11.000Z,998.19
2017-10-17T04:08:11.000Z,998.16
2017-10-17T04:09:11.000Z,998.18
2017-10-17T04:10:11.000Z,998.16
2017-10-17T04:11:11.000Z,998.17
2017-10-17T04:12:11.000Z,998.20
2017-10-17T04:13:11.000Z,998.21
2017-10-17T04:14:11.000Z,998.20
2017-10-17T04:15:11.000Z,998.17
2017-10-17T04:16:06.000Z,998.28
2017-10-17T04:17:11.000Z,998.20
2017-10-17T04:18:11.000Z,998.24
2017-10-17T04:19:11.000Z,998.23
2017-10-17T04:20:11.000Z,998.19
2017-10-17T04:21:11.000Z,998.21
2017-10-17T04:22:11.000Z,998.21
2017-10-17T04:23:11.000Z,998.17
2017-10-17T04:24:11.000Z,998.15
2017-10-17T04:25:11.000Z,998.14
2017-10-17T04:26:11.000Z,998.21
2017-10-17T04:27:11.000Z,998.18
2017-10-17T04:28:11.000Z,998.25
2017-10-17T04:29:11.000Z,998.17
2017-10-17T04:30:11.000Z,998.14
2017-10-17T04:31:11.000Z,998.09
2017-10-17T04:32:11.000Z,998.15
2017-10-17T04:33:11.000Z,998.14
2017-10-17T04:34:11.000Z,998.15
2017-10-17T04:35:11.000Z,998.13
2017-10-17T04:36:11.000Z,998.16
2017-10-17T04:37:11.000Z,998.19
2017-10-17T04:38:11.000Z,998.20
2017-10-17T04:39:11.000Z,998.12
2017-10-17T04:40:11.000Z,998.16
2017-10-17T04:41:11.000Z,998.14
2017-10-17T04:42:11.000Z,998.17
2017-10-17T04:43:11.000Z,998.17
2017-10-17T04:44:11.000Z,998.21
2017-10-17T04:45:11.000Z,998.19
2017-10-17T04:46:11.000Z,998.23
2017-10-17T04:47:11.000Z,998.21
2017-10-17T04:48:11.000Z,998.28
2017-10-17T04:49:11.000Z,998.30
2017-10-17T04:50:11.000Z,998.21
2017-10-17T04:51:11.000Z,998.22
2017-10-17T04:52:11.000Z,998.33
2017-10-17T04:53:11.000Z,998.28
2017-10-17T04:54:11.000Z,998.28
2017-10-17T04:55:11.000Z,998.27
2017-10-17T04:56:11.000Z,998.31
2017-10-17T04:57:11.000Z,998.33
2017-10-17T04:58:11.000Z,998.29
2017-10-17T04:59:11.000Z,998.28
2017-10-17T05:00:11.000Z,998.26
2017-10-17T05:01:11.000Z,998.26
2017-10-17T05:02:11.000Z,998.19
2017-10-17T05:03:11.000Z,998.20
2017-10-17T05:04:11.000Z,998.23
2017-10-17T05:05:11.000Z,998.20
2017-10-17T05:06:11.000Z,998.15
2017-10-17T05:07:11.000Z,998.24
2017-10-17T05:08:11.000Z,998.21
2017-10-17T05:09:11.000Z,998.17
2017-10-17T05:10:11.000Z,998.21
2017-10-17T05:11:11.000Z,998.25
2017-10-17T05:12:11.000Z,998.27
2017-10-17T05:13:11.000Z,998.18
2017-10-17T05:14:06.000Z,998.21
2017-10-17T05:15:11.000Z,998.22
2017-10-17T05:16:11.000Z,998.12
2017-10-17T05:17:11.000Z,998.19
2017-10-17T05:18:11.000Z,998.16
2017-10-17T05:19:11.000Z,998.21
2017-10-17T05:20:11.000Z,998.10
2017-10-17T05:21:11.000Z,998.17
2017-10-17T05:22:11.000Z,998.14
2017-10-17T05:23:11.000Z,998.11
2017-10-17T05:24:11.000Z,998.12
2017-10-17T05:25:06.000Z,998.10
2017-10-17T05:26:11.000Z,998.04
2017-10-17T05:27:11.000Z,998.17
2017-10-17T05:28:11.000Z,998.07
2017-10-17T05:29:11.000Z,998.13
2017-10-17T05:30:11.000Z,998.10
2017-10-17T05:31:11.000Z,998.09
2017-10-17T05:32:11.000Z,998.06
2017-10-17T05:33:11.000Z,998.08
2017-10-17T05:34:11.000Z,998.07
2017-10-17T05:35:11.000Z,998.04
2017-10-17T05:36:11.000Z,998.03
2017-10-17T05:37:11.000Z,998.04
2017-10-17T05:38:11.000Z,998.04
2017-10-17T05:39:11.000Z,998.00
2017-10-17T05:40:11.000Z,998.05
2017-10-17T05:41:11.000Z,998.09
2017-10-17T05:42:11.000Z,998.05
2017-10-17T05:43:11.000Z,998.03
2017-10-17T05:44:11.000Z,998.00
2017-10-17T05:45:11.000Z,998.05
2017-10-17T05:46:11.000Z,998.09
2017-10-17T05:47:11.000Z,998.08
2017-10-17T05:48:12.000Z,998.06
2017-10-17T05:49:11.000Z,998.12
2017-10-17T05:50:11.000Z,998.11
2017-10-17T05:51:11.000Z,998.10
2017-10-17T05:52:11.000Z,998.08
2017-10-17T05:53:11.000Z,998.09
2017-10-17T05:54:11.000Z,998.11
2017-10-17T05:55:12.000Z,998.04
2017-10-17T05:56:11.000Z,998.11
2017-10-17T05:57:11.000Z,998.10
2017-10-17T05:58:11.000Z,998.08
2017-10-17T05:59:11.000Z,998.17
2017-10-17T06:00:11.000Z,998.04
2017-10-17T06:01:06.000Z,998.12
2017-10-17T06:02:11.000Z,998.14
2017-10-17T06:03:11.000Z,998.15
2017-10-17T06:04:11.000Z,998.19
2017-10-17T06:05:11.000Z,998.18
2017-10-17T06:06:11.000Z,998.20
2017-10-17T06:07:11.000Z,998.17
2017-10-17T06:08:11.000Z,998.21
2017-10-17T06:09:11.000Z,998.25
2017-10-17T06:10:11.000Z,998.21
2017-10-17T06:11:11.000Z,998.26
2017-10-17T06:12:11.000Z,998.29
2017-10-17T06:13:11.000Z,998.37
2017-10-17T06:14:11.000Z,998.32
2017-10-17T06:15:11.000Z,998.43
2017-10-17T06:16:11.000Z,998.40
2017-10-17T06:17:11.000Z,998.43
2017-10-17T07:05:32.000Z,998.61
2017-10-17T07:06:11.000Z,998.54
2017-10-17T07:07:11.000Z,998.52
2017-10-17T07:08:12.000Z,998.48
2017-10-17T07:09:12.000Z,998.45
2017-10-17T07:10:12.000Z,998.49
2017-10-17T07:11:12.000Z,998.47
2017-10-17T07:12:12.000Z,998.47
2017-10-17T07:13:12.000Z,998.49
2017-10-17T07:14:12.000Z,998.47
2017-10-17T07:15:12.000Z,998.46
2017-10-17T07:16:12.000Z,998.43
2017-10-17T07:17:12.000Z,998.45
2017-10-17T07:18:12.000Z,998.44
2017-10-17T07:19:12.000Z,998.44
2017-10-17T07:20:12.000Z,998.49
2017-10-17T07:21:12.000Z,998.45
2017-10-17T07:22:12.000Z,998.46
2017-10-17T07:23:12.000Z,998.44
2017-10-17T07:24:12.000Z,998.47
2017-10-17T07:25:12.000Z,998.54
2017-10-17T07:26:12.000Z,998.54
2017-10-17T07:27:12.000Z,998.50
2017-10-17T07:28:12.000Z,998.50
2017-10-17T07:29:12.000Z,998.48
2017-10-17T07:30:12.000Z,998.52
2017-10-17T07:31:12.000Z,998.49
2017-10-17T07:32:12.000Z,998.49
2017-10-17T07:33:12.000Z,998.48
2017-10-17T07:34:12.000Z,998.54
2017-10-17T07:35:12.000Z,998.46
2017-10-17T07:36:12.000Z,998.51
2017-10-17T07:37:12.000Z,998.47
2017-10-17T07:38:12.000Z,998.48
2017-10-17T07:39:12.000Z,998.46
2017-10-17T07:40:12.000Z,998.48
2017-10-17T07:41:12.000Z,998.49
2017-10-17T07:42:12.000Z,998.47
2017-10-17T07:43:12.000Z,998.50
2017-10-17T07:44:07.000Z,998.50
2017-10-17T07:45:12.000Z,998.48
2017-10-17T07:46:12.000Z,998.45
2017-10-17T07:47:12.000Z,998.43
2017-10-17T07:48:12.000Z,998.47
2017-10-17T07:49:12.000Z,998.47
2017-10-17T07:50:12.000Z,996.45
2017-10-17T07:51:12.000Z,998.51
2017-10-17T07:52:12.000Z,998.48
2017-10-17T07:53:12.000Z,998.40
2017-10-17T07:54:12.000Z,998.43
2017-10-17T07:55:12.000Z,998.48
2017-10-17T07:56:12.000Z,998.47
2017-10-17T07:57:12.000Z,998.46
2017-10-17T07:58:12.000Z,998.51
2017-10-17T07:59:12.000Z,998.45
2017-10-17T08:00:12.000Z,998.45
2017-10-17T08:01:12.000Z,998.52
2017-10-17T08:02:12.000Z,998.58
2017-10-17T08:03:12.000Z,998.56
2017-10-17T08:04:12.000Z,998.64
2017-10-17T08:05:12.000Z,998.56
2017-10-17T08:06:12.000Z,998.59
2017-10-17T08:07:12.000Z,998.55
2017-10-17T08:08:12.000Z,998.55
2017-10-17T08:09:12.000Z,998.50
2017-10-17T08:10:12.000Z,998.47
2017-10-17T08:11:12.000Z,998.46
2017-10-17T08:12:12.000Z,998.46
2017-10-17T08:13:12.000Z,998.41
2017-10-17T08:14:12.000Z,998.44
2017-10-17T08:15:12.000Z,998.40
2017-10-17T08:16:12.000Z,998.43
2017-10-17T08:17:12.000Z,998.44
2017-10-17T08:18:12.000Z,998.37
2017-10-17T08:19:12.000Z,998.34
2017-10-17T08:20:12.000Z,998.39
2017-10-17T08:21:12.000Z,998.39
2017-10-17T08:22:12.000Z,998.36
2017-10-17T08:23:12.000Z,998.37
2017-10-17T08:24:12.000Z,998.36
2017-10-17T08:25:12.000Z,998.33
2017-10-17T08:26:12.000Z,998.35
2017-10-17T08:27:12.000Z,998.29
2017-10-17T08:28:12.000Z,998.37
2017-10-17T08:29:12.000Z,998.29
2017-10-17T08:30:12.000Z,998.24
2017-10-17T08:31:12.000Z,998.32
2017-10-17T08:32:12.000Z,998.31
2017-10-17T08:33:12.000Z,998.27
2017-10-17T08:34:12.000Z,998.35
2017-10-17T08:35:12.000Z,998.27
2017-10-17T08:36:12.000Z,998.32
2017-10-17T08:37:12.000Z,998.28
2017-10-17T08:38:12.000Z,998.30
2017-10-17T08:39:12.000Z,998.30
2017-10-17T08:40:12.000Z,998.36
2017-10-17T08:41:12.000Z,998.28
2017-10-17T08:42:12.000Z,998.30
2017-10-17T08:43:12.000Z,998.25
2017-10-17T08:44:12.000Z,998.26
2017-10-17T08:45:12.000Z,998.33
2017-10-17T08:46:12.000Z,998.31
2017-10-17T08:47:12.000Z,998.26
2017-10-17T08:48:12.000Z,998.31
2017-10-17T08:49:12.000Z,998.26
2017-10-17T08:50:12.000Z,998.29
2017-10-17T08:51:12.000Z,998.22
2017-10-17T08:52:07.000Z,998.25
2017-10-17T08:53:07.000Z,998.22
2017-10-17T08:54:12.000Z,998.27
2017-10-17T08:55:12.000Z,998.23
2017-10-17T08:56:12.000Z,998.24
2017-10-17T08:57:12.000Z,998.29
2017-10-17T08:58:12.000Z,998.28
2017-10-17T08:59:12.000Z,998.30
2017-10-17T09:00:12.000Z,998.30
2017-10-17T09:01:12.000Z,998.28
2017-10-17T09:02:12.000Z,998.30
2017-10-17T09:03:12.000Z,998.27
2017-10-17T09:04:12.000Z,998.28
2017-10-17T09:05:12.000Z,998.26
2017-10-17T09:06:12.000Z,998.36
2017-10-17T09:07:12.000Z,998.31
2017-10-17T09:08:12.000Z,998.38
2017-10-17T09:09:12.000Z,998.28
2017-10-17T09:10:12.000Z,998.35
2017-10-17T09:11:12.000Z,998.31
2017-10-17T09:12:12.000Z,998.31
2017-10-17T09:13:12.000Z,998.30
2017-10-17T09:14:12.000Z,998.36
2017-10-17T09:15:12.000Z,998.31
2017-10-17T09:16:12.000Z,998.31
2017-10-17T09:17:12.000Z,998.32
2017-10-17T09:18:12.000Z,998.36
2017-10-17T09:19:12.000Z,998.32
2017-10-17T09:20:12.000Z,998.31
2017-10-17T09:21:12.000Z,998.37
2017-10-17T09:22:07.000Z,998.29
2017-10-17T09:23:12.000Z,998.29
2017-10-17T09:24:12.000Z,998.33
2017-10-17T09:25:12.000Z,998.33
2017-10-17T09:26:12.000Z,998.33
2017-10-17T09:27:12.000Z,998.33
2017-10-17T09:28:12.000Z,998.36
2017-10-17T09:29:12.000Z,998.32
2017-10-17T09:30:12.000Z,998.30
2017-10-17T09:31:12.000Z,998.39
2017-10-17T09:32:12.000Z,998.34
2017-10-17T09:33:07.000Z,998.27
2017-10-17T09:34:12.000Z,998.23
2017-10-17T09:35:12.000Z,998.27
2017-10-17T09:36:12.000Z,998.29
2017-10-17T09:37:03.000Z,998.25
2017-10-17T09:37:57.000Z,998.13
2017-10-17T09:39:08.000Z,998.19
2017-10-17T09:39:57.000Z,998.26
2017-10-17T09:41:05.000Z,998.12
2017-10-17T09:41:57.000Z,998.19
2017-10-17T09:43:11.000Z,998.13
2017-10-17T09:43:57.000Z,998.08
2017-10-17T09:45:04.000Z,998.05
2017-10-17T09:45:57.000Z,998.06
2017-10-17T09:47:03.000Z,998.05
2017-10-17T09:47:57.000Z,998.06
2017-10-17T09:49:03.000Z,998.03
2017-10-17T09:49:57.000Z,998.09
2017-10-17T09:51:03.000Z,998.01
2017-10-17T09:51:57.000Z,998.09
2017-10-17T09:53:08.000Z,998.03
2017-10-17T09:53:57.000Z,998.02
2017-10-17T09:55:03.000Z,998.03
2017-10-17T09:55:57.000Z,997.97
2017-10-17T09:57:03.000Z,998.05
2017-10-17T09:57:58.000Z,997.98
2017-10-17T09:59:04.000Z,997.94
2017-10-17T09:59:58.000Z,997.93
2017-10-17T10:01:03.000Z,997.95
2017-10-17T10:01:57.000Z,997.96
2017-10-17T10:03:08.000Z,997.91
2017-10-17T10:03:57.000Z,997.90
2017-10-17T10:05:03.000Z,997.90
2017-10-17T10:05:57.000Z,997.84
2017-10-17T10:07:03.000Z,997.93
2017-10-17T10:07:57.000Z,997.90
2017-10-17T10:09:05.000Z,997.87
2017-10-17T10:09:58.000Z,997.86
2017-10-17T10:11:03.000Z,997.95
2017-10-17T10:11:58.000Z,997.93
2017-10-17T10:13:09.000Z,997.86
2017-10-17T10:13:58.000Z,997.80
2017-10-17T10:15:03.000Z,997.86
2017-10-17T10:15:57.000Z,997.84
2017-10-17T10:17:03.000Z,997.88
2017-10-17T10:17:58.000Z,997.86
2017-10-17T10:19:03.000Z,997.84
2017-10-17T10:19:58.000Z,997.80
2017-10-17T10:21:03.000Z,997.79
2017-10-17T10:21:58.000Z,997.81
2017-10-17T10:23:09.000Z,997.78
2017-10-17T10:23:58.000Z,997.78
2017-10-17T10:25:03.000Z,997.70
2017-10-17T10:25:58.000Z,997.77
2017-10-17T10:27:03.000Z,997.75
2017-10-17T10:27:57.000Z,997.78
2017-10-17T10:29:03.000Z,997.84
2017-10-17T10:29:58.000Z,997.80
2017-10-17T10:31:03.000Z,997.70
2017-10-17T10:31:58.000Z,997.66
2017-10-17T10:33:08.000Z,997.64
2017-10-17T10:33:58.000Z,997.69
2017-10-17T10:35:03.000Z,997.68
2017-10-17T10:35:58.000Z,997.74
2017-10-17T10:37:03.000Z,997.63
2017-10-17T10:37:58.000Z,997.63
2017-10-17T10:39:06.000Z,997.65
2017-10-17T10:39:58.000Z,997.57
2017-10-17T10:41:03.000Z,997.55
2017-10-17T10:41:58.000Z,997.62
2017-10-17T10:43:09.000Z,997.59
2017-10-17T10:43:58.000Z,997.58
2017-10-17T10:45:04.000Z,997.53
2017-10-17T10:45:58.000Z,997.59
2017-10-17T10:47:03.000Z,997.47
2017-10-17T10:47:58.000Z,997.56
2017-10-17T10:49:03.000Z,997.48
2017-10-17T10:49:58.000Z,997.53
2017-10-17T10:51:03.000Z,997.45
2017-10-17T10:51:58.000Z,997.52
2017-10-17T10:53:10.000Z,997.46
2017-10-17T10:53:58.000Z,997.46
2017-10-17T10:55:05.000Z,997.49
2017-10-17T10:55:58.000Z,997.46
2017-10-17T10:57:04.000Z,997.52
2017-10-17T10:57:58.000Z,997.43
2017-10-17T10:59:04.000Z,997.40
2017-10-17T10:59:58.000Z,997.43
2017-10-17T11:01:03.000Z,997.43
2017-10-17T11:01:58.000Z,997.40
2017-10-17T11:03:09.000Z,997.43
2017-10-17T11:03:58.000Z,997.37
2017-10-17T11:05:04.000Z,997.40
2017-10-17T11:05:58.000Z,997.38
2017-10-17T11:07:04.000Z,997.29
2017-10-17T11:07:58.000Z,997.36
2017-10-17T11:09:07.000Z,997.38
2017-10-17T11:09:58.000Z,997.29
2017-10-17T11:11:03.000Z,997.29
2017-10-17T11:11:58.000Z,997.31
2017-10-17T11:13:10.000Z,997.31
2017-10-17T11:13:58.000Z,997.27
2017-10-17T11:15:04.000Z,997.25
2017-10-17T11:15:58.000Z,997.23
2017-10-17T11:17:03.000Z,997.25
2017-10-17T11:17:58.000Z,997.21
2017-10-17T11:19:03.000Z,997.22
2017-10-17T11:19:58.000Z,997.22
2017-10-17T11:21:04.000Z,997.14
2017-10-17T11:21:58.000Z,997.13
2017-10-17T11:23:09.000Z,997.09
2017-10-17T11:23:58.000Z,997.06
2017-10-17T11:25:04.000Z,997.07
2017-10-17T11:25:58.000Z,997.12
2017-10-17T11:27:03.000Z,997.02
2017-10-17T11:27:58.000Z,996.99
2017-10-17T11:29:05.000Z,997.03
2017-10-17T11:29:58.000Z,996.95
2017-10-17T11:31:05.000Z,996.97
2017-10-17T11:31:58.000Z,996.94
2017-10-17T11:33:10.000Z,996.95
2017-10-17T11:33:58.000Z,996.98
2017-10-17T11:35:04.000Z,996.89
2017-10-17T11:35:58.000Z,997.04
2017-10-17T11:37:04.000Z,996.93
2017-10-17T11:37:58.000Z,996.89
2017-10-17T11:39:08.000Z,996.85
2017-10-17T11:39:58.000Z,996.81
2017-10-17T11:44:16.000Z,996.79
2017-10-17T11:44:19.000Z,996.68
2017-10-17T11:44:58.000Z,996.71
2017-10-17T11:48:25.000Z,996.67
2017-10-17T11:48:26.000Z,996.67
2017-10-17T11:48:27.000Z,996.61
2017-10-17T11:48:58.000Z,996.61
2017-10-17T11:51:46.000Z,996.58
2017-10-17T11:51:48.000Z,996.60
2017-10-17T11:51:58.000Z,996.57
2017-10-17T11:53:12.000Z,996.54
2017-10-17T11:53:58.000Z,996.50
2017-10-17T11:55:06.000Z,996.54
2017-10-17T11:55:58.000Z,996.45
2017-10-17T11:57:06.000Z,996.46
2017-10-17T11:57:58.000Z,996.40
2017-10-17T11:59:06.000Z,996.43
2017-10-17T11:59:58.000Z,996.39
2017-10-17T12:01:05.000Z,996.31
2017-10-17T12:01:58.000Z,996.42
2017-10-17T12:03:13.000Z,996.25
2017-10-17T12:03:58.000Z,996.28
2017-10-17T12:05:06.000Z,996.25
2017-10-17T12:05:58.000Z,996.22
2017-10-17T12:07:04.000Z,996.30
2017-10-17T12:07:58.000Z,996.27
2017-10-17T12:09:09.000Z,996.22
2017-10-17T12:09:58.000Z,996.21
2017-10-17T12:11:17.000Z,996.16
2017-10-17T12:11:58.000Z,996.21
2017-10-17T12:13:15.000Z,996.19
2017-10-17T12:13:58.000Z,996.15
2017-10-17T12:15:07.000Z,996.14
2017-10-17T12:15:58.000Z,996.13
2017-10-17T12:17:06.000Z,996.06
2017-10-17T12:17:58.000Z,996.04
2017-10-17T12:19:06.000Z,996.10
2017-10-17T12:19:58.000Z,996.00
2017-10-17T12:21:06.000Z,995.98
2017-10-17T12:21:58.000Z,996.08
2017-10-17T12:23:12.000Z,996.01
2017-10-17T12:23:58.000Z,996.07
2017-10-17T12:25:04.000Z,996.09
2017-10-17T12:25:58.000Z,996.03
2017-10-17T12:27:04.000Z,996.10
2017-10-17T12:27:58.000Z,995.99
2017-10-17T12:29:04.000Z,996.04
2017-10-17T12:29:58.000Z,995.98
2017-10-17T12:31:06.000Z,995.96
2017-10-17T12:31:58.000Z,995.92
2017-10-17T12:33:13.000Z,995.95
2017-10-17T12:33:58.000Z,995.96
2017-10-17T12:35:06.000Z,995.91
2017-10-17T12:35:58.000Z,995.86
2017-10-17T12:37:06.000Z,995.82
2017-10-17T12:37:58.000Z,995.87
2017-10-17T12:39:10.000Z,995.81
2017-10-17T12:39:58.000Z,995.83
2017-10-17T12:41:06.000Z,995.83
2017-10-17T12:41:58.000Z,995.79
2017-10-17T12:43:11.000Z,995.79
2017-10-17T12:43:58.000Z,995.72
2017-10-17T12:45:05.000Z,995.83
2017-10-17T12:45:58.000Z,995.77
2017-10-17T12:47:09.000Z,995.72
2017-10-17T12:47:58.000Z,995.74
2017-10-17T12:49:04.000Z,995.69
2017-10-17T12:49:58.000Z,995.68
2017-10-17T12:51:04.000Z,995.72
2017-10-17T12:51:58.000Z,995.68
2017-10-17T12:53:11.000Z,995.63
2017-10-17T12:53:58.000Z,995.71
2017-10-17T12:55:06.000Z,995.58
2017-10-17T12:55:58.000Z,995.63
2017-10-17T12:57:05.000Z,995.62
2017-10-17T12:57:58.000Z,995.60
2017-10-17T12:59:05.000Z,995.61
2017-10-17T12:59:58.000Z,995.53
2017-10-17T13:01:04.000Z,995.57
2017-10-17T13:01:58.000Z,995.47
2017-10-17T13:03:11.000Z,995.51
2017-10-17T13:03:58.000Z,995.44
2017-10-17T13:05:11.000Z,995.43
2017-10-17T13:05:58.000Z,995.42
2017-10-17T13:07:06.000Z,995.46
2017-10-17T13:07:58.000Z,995.40
2017-10-17T13:09:10.000Z,995.41
2017-10-17T13:09:58.000Z,995.47
2017-10-17T13:11:06.000Z,995.43
2017-10-17T13:11:58.000Z,995.46
2017-10-17T13:13:12.000Z,995.40
2017-10-17T13:13:58.000Z,995.40